HTZA/ZNZ METAR and TAF weather

Enter ICAO airport designator
Station Type Date Time Source
HTZA METAR 2020/07/10 19:00 UTC NOAA

HTZA 101900Z 20010KT 9999 BKN014 23/21 Q1016 NOSIG


Station Type Date Time Source
HTZA Decoded METAR 2020/07/10 19:00 UTC NOAA

Zanzibar / Kisauni, Tanzania (HTZA) 06-13S 039-13E 15M
Jul 10, 2020 - 03:00 PM EDT / 2020.07.10 1900 UTC
Wind: from the SSW (200 degrees) at 12 MPH (10 KT):0
Visibility: greater than 7 mile(s):0
Sky conditions: mostly cloudy
Temperature: 73 F (23 C)
Dew Point: 69 F (21 C)
Relative Humidity: 88%
Pressure (altimeter): 30.00 in. Hg (1016 hPa)
ob: HTZA 101900Z 20010KT 9999 BKN014 23/21 Q1016 NOSIG
cycle: 19

Station Type Date Time Source
HTZA TAF 2020/07/10 18:51 UTC NOAA

TAF HTZA 101700Z 1018/1118 00000KT 9999 BKN016
BECMG 1104/1106 16010KT
BECMG 1112/1114 10010KT SCT022

Example: see airport list